sensor_id;sensor_type;location;lat;lon;timestamp;pressure;altitude;pressure_sealevel;temperature;humidity
13015;BME280;6573;57.696;11.950;2023-09-19T00:00:59;99545.84;;;21.67;100.00
13015;BME280;6573;57.696;11.950;2023-09-19T00:03:28;99531.50;;;21.68;100.00
13015;BME280;6573;57.696;11.950;2023-09-19T00:05:58;99533.63;;;21.63;100.00
13015;BME280;6573;57.696;11.950;2023-09-19T00:08:26;99533.84;;;21.60;100.00
13015;BME280;6573;57.696;11.950;2023-09-19T00:10:55;99512.22;;;21.63;100.00
13015;BME280;6573;57.696;11.950;2023-09-19T00:13:25;99508.59;;;21.64;100.00
13015;BME280;6573;57.696;11.950;2023-09-19T00:15:55;99505.16;;;21.62;100.00
13015;BME280;6573;57.696;11.950;2023-09-19T00:18:27;99498.09;;;21.61;100.00
13015;BME280;6573;57.696;11.950;2023-09-19T00:20:59;99502.34;;;21.51;100.00
13015;BME280;6573;57.696;11.950;2023-09-19T00:23:27;99520.13;;;21.52;100.00
13015;BME280;6573;57.696;11.950;2023-09-19T00:25:58;99531.94;;;21.62;100.00
13015;BME280;6573;57.696;11.950;2023-09-19T00:28:30;99535.16;;;21.67;100.00
13015;BME280;6573;57.696;11.950;2023-09-19T00:30:59;99486.28;;;21.51;100.00
13015;BME280;6573;57.696;11.950;2023-09-19T00:33:30;99510.06;;;21.68;100.00
13015;BME280;6573;57.696;11.950;2023-09-19T00:35:58;99512.88;;;21.67;100.00
13015;BME280;6573;57.696;11.950;2023-09-19T00:38:28;99477.63;;;21.35;100.00
13015;BME280;6573;57.696;11.950;2023-09-19T00:40:57;99498.94;;;21.49;100.00
13015;BME280;6573;57.696;11.950;2023-09-19T00:43:26;99503.53;;;21.47;100.00
13015;BME280;6573;57.696;11.950;2023-09-19T00:45:56;99502.16;;;21.67;100.00
13015;BME280;6573;57.696;11.950;2023-09-19T00:48:27;99507.00;;;21.74;100.00
13015;BME280;6573;57.696;11.950;2023-09-19T00:50:59;99488.47;;;21.71;100.00
13015;BME280;6573;57.696;11.950;2023-09-19T00:53:31;99486.75;;;21.70;100.00
13015;BME280;6573;57.696;11.950;2023-09-19T00:56:01;99477.84;;;21.57;100.00
13015;BME280;6573;57.696;11.950;2023-09-19T00:58:31;99478.41;;;21.62;100.00
13015;BME280;6573;57.696;11.950;2023-09-19T01:01:01;99470.69;;;21.70;100.00
13015;BME280;6573;57.696;11.950;2023-09-19T01:03:30;99465.03;;;21.62;100.00
13015;BME280;6573;57.696;11.950;2023-09-19T01:06:00;99459.88;;;21.59;100.00
13015;BME280;6573;57.696;11.950;2023-09-19T01:08:29;99451.63;;;21.62;100.00
13015;BME280;6573;57.696;11.950;2023-09-19T01:11:01;99453.31;;;21.63;100.00
13015;BME280;6573;57.696;11.950;2023-09-19T01:13:37;99449.81;;;21.50;100.00
13015;BME280;6573;57.696;11.950;2023-09-19T01:16:19;99451.84;;;21.59;100.00
13015;BME280;6573;57.696;11.950;2023-09-19T01:19:05;99447.97;;;21.63;100.00
13015;BME280;6573;57.696;11.950;2023-09-19T01:21:42;99412.44;;;21.61;100.00
13015;BME280;6573;57.696;11.950;2023-09-19T01:27:47;99423.38;;;21.58;100.00
13015;BME280;6573;57.696;11.950;2023-09-19T01:30:22;99423.38;;;21.58;100.00
13015;BME280;6573;57.696;11.950;2023-09-19T01:32:54;99408.59;;;21.53;100.00
13015;BME280;6573;57.696;11.950;2023-09-19T01:35:24;99418.44;;;21.52;100.00
13015;BME280;6573;57.696;11.950;2023-09-19T01:37:53;99417.91;;;21.47;100.00
13015;BME280;6573;57.696;11.950;2023-09-19T01:40:22;99408.16;;;21.46;100.00
13015;BME280;6573;57.696;11.950;2023-09-19T01:42:56;99409.47;;;21.53;100.00
13015;BME280;6573;57.696;11.950;2023-09-19T01:45:35;99404.75;;;21.44;100.00
13015;BME280;6573;57.696;11.950;2023-09-19T01:48:19;99403.88;;;21.56;100.00
13015;BME280;6573;57.696;11.950;2023-09-19T01:50:55;99381.41;;;21.46;100.00
13015;BME280;6573;57.696;11.950;2023-09-19T01:53:28;99389.34;;;21.60;100.00
13015;BME280;6573;57.696;11.950;2023-09-19T01:55:58;99389.97;;;21.51;100.00
13015;BME280;6573;57.696;11.950;2023-09-19T01:58:33;99388.81;;;21.55;100.00
13015;BME280;6573;57.696;11.950;2023-09-19T02:01:04;99381.00;;;21.52;100.00
13015;BME280;6573;57.696;11.950;2023-09-19T02:03:35;99391.03;;;21.61;100.00
13015;BME280;6573;57.696;11.950;2023-09-19T02:06:04;99384.72;;;21.62;100.00
13015;BME280;6573;57.696;11.950;2023-09-19T02:08:38;99380.31;;;21.61;100.00
13015;BME280;6573;57.696;11.950;2023-09-19T02:11:06;99367.94;;;21.60;100.00
13015;BME280;6573;57.696;11.950;2023-09-19T02:13:35;99348.88;;;21.65;100.00
13015;BME280;6573;57.696;11.950;2023-09-19T02:16:05;99343.59;;;21.63;100.00
13015;BME280;6573;57.696;11.950;2023-09-19T02:18:34;99328.31;;;21.65;100.00
13015;BME280;6573;57.696;11.950;2023-09-19T02:21:02;99338.13;;;21.77;100.00
13015;BME280;6573;57.696;11.950;2023-09-19T02:23:33;99339.81;;;21.78;100.00
13015;BME280;6573;57.696;11.950;2023-09-19T02:26:01;99336.97;;;21.69;100.00
13015;BME280;6573;57.696;11.950;2023-09-19T02:28:30;99319.50;;;21.63;100.00
13015;BME280;6573;57.696;11.950;2023-09-19T02:30:59;99331.72;;;21.67;100.00
13015;BME280;6573;57.696;11.950;2023-09-19T02:33:28;99336.44;;;21.64;100.00
13015;BME280;6573;57.696;11.950;2023-09-19T02:35:59;99313.53;;;21.72;100.00
13015;BME280;6573;57.696;11.950;2023-09-19T02:38:30;99317.16;;;21.71;100.00
13015;BME280;6573;57.696;11.950;2023-09-19T02:40:59;99315.84;;;21.77;100.00
13015;BME280;6573;57.696;11.950;2023-09-19T02:43:27;99315.00;;;21.76;100.00
13015;BME280;6573;57.696;11.950;2023-09-19T02:45:55;99291.88;;;21.75;100.00
13015;BME280;6573;57.696;11.950;2023-09-19T02:48:24;99289.47;;;21.83;100.00
13015;BME280;6573;57.696;11.950;2023-09-19T02:50:54;99315.38;;;21.96;100.00
13015;BME280;6573;57.696;11.950;2023-09-19T02:53:23;99300.66;;;21.77;100.00
13015;BME280;6573;57.696;11.950;2023-09-19T02:55:52;99293.78;;;21.73;100.00
13015;BME280;6573;57.696;11.950;2023-09-19T02:58:21;99291.88;;;21.75;100.00
13015;BME280;6573;57.696;11.950;2023-09-19T03:00:52;99302.59;;;21.75;100.00
13015;BME280;6573;57.696;11.950;2023-09-19T03:03:22;99295.72;;;21.71;100.00
13015;BME280;6573;57.696;11.950;2023-09-19T03:05:50;99282.91;;;21.64;100.00
13015;BME280;6573;57.696;11.950;2023-09-19T03:08:23;99279.47;;;21.74;100.00
13015;BME280;6573;57.696;11.950;2023-09-19T03:10:51;99264.13;;;21.76;100.00
13015;BME280;6573;57.696;11.950;2023-09-19T03:13:20;99262.16;;;21.67;100.00
13015;BME280;6573;57.696;11.950;2023-09-19T03:15:48;99249.28;;;21.72;100.00
13015;BME280;6573;57.696;11.950;2023-09-19T03:18:17;99257.97;;;21.63;100.00
13015;BME280;6573;57.696;11.950;2023-09-19T03:20:52;99253.13;;;21.68;100.00
13015;BME280;6573;57.696;11.950;2023-09-19T03:23:23;99253.81;;;21.59;100.00
13015;BME280;6573;57.696;11.950;2023-09-19T03:25:53;99250.97;;;21.73;100.00
13015;BME280;6573;57.696;11.950;2023-09-19T03:28:21;99241.97;;;21.74;100.00
13015;BME280;6573;57.696;11.950;2023-09-19T03:30:59;99248.41;;;21.72;100.00
13015;BME280;6573;57.696;11.950;2023-09-19T03:33:28;99242.94;;;21.73;100.00
13015;BME280;6573;57.696;11.950;2023-09-19T03:35:58;99238.34;;;21.75;100.00
13015;BME280;6573;57.696;11.950;2023-09-19T03:38:28;99238.56;;;21.72;100.00
13015;BME280;6573;57.696;11.950;2023-09-19T03:40:57;99236.34;;;21.66;100.00
13015;BME280;6573;57.696;11.950;2023-09-19T03:43:25;99247.25;;;21.63;100.00
13015;BME280;6573;57.696;11.950;2023-09-19T03:45:54;99243.56;;;21.53;100.00
13015;BME280;6573;57.696;11.950;2023-09-19T03:48:23;99239.69;;;21.57;100.00
13015;BME280;6573;57.696;11.950;2023-09-19T03:50:51;99236.28;;;21.55;100.00
13015;BME280;6573;57.696;11.950;2023-09-19T03:53:20;99239.91;;;21.54;100.00
13015;BME280;6573;57.696;11.950;2023-09-19T03:55:50;99237.53;;;21.62;100.00
13015;BME280;6573;57.696;11.950;2023-09-19T03:58:18;99237.53;;;21.62;100.00
13015;BME280;6573;57.696;11.950;2023-09-19T04:00:47;99235.59;;;21.64;100.00
13015;BME280;6573;57.696;11.950;2023-09-19T04:03:16;99229.41;;;21.51;100.00
13015;BME280;6573;57.696;11.950;2023-09-19T04:05:47;99229.91;;;21.33;100.00
13015;BME280;6573;57.696;11.950;2023-09-19T04:08:16;99222.50;;;21.36;100.00
13015;BME280;6573;57.696;11.950;2023-09-19T04:10:44;99221.13;;;21.43;100.00
13015;BME280;6573;57.696;11.950;2023-09-19T04:13:14;99224.22;;;21.37;100.00
13015;BME280;6573;57.696;11.950;2023-09-19T04:15:42;99224.53;;;21.45;100.00
13015;BME280;6573;57.696;11.950;2023-09-19T04:18:10;99232.66;;;21.44;100.00
13015;BME280;6573;57.696;11.950;2023-09-19T04:20:38;99226.69;;;21.40;100.00
13015;BME280;6573;57.696;11.950;2023-09-19T04:23:07;99226.69;;;21.40;100.00
13015;BME280;6573;57.696;11.950;2023-09-19T04:25:36;99221.53;;;21.37;100.00
13015;BME280;6573;57.696;11.950;2023-09-19T04:28:05;99223.09;;;21.28;100.00
13015;BME280;6573;57.696;11.950;2023-09-19T04:30:36;99223.69;;;21.32;100.00
13015;BME280;6573;57.696;11.950;2023-09-19T04:33:04;99223.09;;;21.16;100.00
13015;BME280;6573;57.696;11.950;2023-09-19T04:35:34;99203.31;;;21.06;100.00
13015;BME280;6573;57.696;11.950;2023-09-19T04:38:02;99215.88;;;21.04;100.00
13015;BME280;6573;57.696;11.950;2023-09-19T04:40:33;99227.78;;;21.00;100.00
13015;BME280;6573;57.696;11.950;2023-09-19T04:43:01;99231.53;;;20.97;100.00
13015;BME280;6573;57.696;11.950;2023-09-19T04:45:29;99218.91;;;20.87;100.00
13015;BME280;6573;57.696;11.950;2023-09-19T04:47:59;99229.50;;;20.88;100.00
13015;BME280;6573;57.696;11.950;2023-09-19T04:50:27;99237.59;;;20.99;100.00
13015;BME280;6573;57.696;11.950;2023-09-19T04:52:56;99247.34;;;21.00;100.00
13015;BME280;6573;57.696;11.950;2023-09-19T04:55:24;99263.50;;;20.74;100.00
13015;BME280;6573;57.696;11.950;2023-09-19T04:57:53;99272.88;;;20.66;100.00
13015;BME280;6573;57.696;11.950;2023-09-19T05:00:22;99280.19;;;20.90;100.00
13015;BME280;6573;57.696;11.950;2023-09-19T05:02:52;99289.34;;;20.60;100.00
13015;BME280;6573;57.696;11.950;2023-09-19T05:05:22;99295.88;;;20.56;100.00
13015;BME280;6573;57.696;11.950;2023-09-19T05:07:52;99300.00;;;20.48;100.00
13015;BME280;6573;57.696;11.950;2023-09-19T05:10:21;99297.66;;;20.43;100.00
13015;BME280;6573;57.696;11.950;2023-09-19T05:12:53;99296.53;;;20.33;100.00
13015;BME280;6573;57.696;11.950;2023-09-19T05:15:22;99306.69;;;20.28;100.00
13015;BME280;6573;57.696;11.950;2023-09-19T05:17:50;99292.84;;;20.22;100.00
13015;BME280;6573;57.696;11.950;2023-09-19T05:20:26;99308.22;;;20.18;100.00
13015;BME280;6573;57.696;11.950;2023-09-19T05:23:00;99318.31;;;20.27;100.00
13015;BME280;6573;57.696;11.950;2023-09-19T05:25:36;99291.59;;;20.27;100.00
13015;BME280;6573;57.696;11.950;2023-09-19T05:28:07;99320.22;;;20.25;100.00
13015;BME280;6573;57.696;11.950;2023-09-19T05:30:36;99320.38;;;20.36;100.00
13015;BME280;6573;57.696;11.950;2023-09-19T05:33:05;99317.38;;;20.14;100.00
13015;BME280;6573;57.696;11.950;2023-09-19T05:35:36;99307.53;;;20.15;100.00
13015;BME280;6573;57.696;11.950;2023-09-19T05:38:06;99304.28;;;19.97;100.00
13015;BME280;6573;57.696;11.950;2023-09-19T05:40:37;99323.50;;;20.02;100.00
13015;BME280;6573;57.696;11.950;2023-09-19T05:43:06;99327.09;;;20.15;100.00
13015;BME280;6573;57.696;11.950;2023-09-19T05:45:35;99328.06;;;20.14;100.00
13015;BME280;6573;57.696;11.950;2023-09-19T05:48:08;99347.19;;;19.94;100.00
13015;BME280;6573;57.696;11.950;2023-09-19T05:50:39;99324.72;;;19.84;100.00
13015;BME280;6573;57.696;11.950;2023-09-19T05:53:08;99353.66;;;20.04;100.00
13015;BME280;6573;57.696;11.950;2023-09-19T05:55:42;99366.16;;;19.89;100.00
13015;BME280;6573;57.696;11.950;2023-09-19T05:58:10;99366.88;;;20.06;100.00
13015;BME280;6573;57.696;11.950;2023-09-19T06:00:41;99377.25;;;20.10;100.00
13015;BME280;6573;57.696;11.950;2023-09-19T06:03:11;99374.81;;;19.93;100.00
13015;BME280;6573;57.696;11.950;2023-09-19T06:05:42;99378.28;;;19.81;100.00
13015;BME280;6573;57.696;11.950;2023-09-19T06:08:10;99392.97;;;19.74;100.00
13015;BME280;6573;57.696;11.950;2023-09-19T06:10:38;99403.44;;;19.77;100.00
13015;BME280;6573;57.696;11.950;2023-09-19T06:13:07;99405.63;;;19.84;100.00
13015;BME280;6573;57.696;11.950;2023-09-19T06:15:37;99402.09;;;19.70;100.00
13015;BME280;6573;57.696;11.950;2023-09-19T06:18:10;99409.34;;;19.68;100.00
13015;BME280;6573;57.696;11.950;2023-09-19T06:20:43;99421.16;;;19.78;100.00
13015;BME280;6573;57.696;11.950;2023-09-19T06:23:12;99422.69;;;19.82;100.00
13015;BME280;6573;57.696;11.950;2023-09-19T06:25:40;99440.59;;;19.66;100.00
13015;BME280;6573;57.696;11.950;2023-09-19T06:28:10;99444.19;;;19.51;100.00
13015;BME280;6573;57.696;11.950;2023-09-19T06:30:40;99429.53;;;18.84;100.00
13015;BME280;6573;57.696;11.950;2023-09-19T06:33:08;99447.66;;;18.93;100.00
13015;BME280;6573;57.696;11.950;2023-09-19T06:35:38;99433.94;;;18.85;100.00
13015;BME280;6573;57.696;11.950;2023-09-19T06:38:10;99447.50;;;19.10;100.00
13015;BME280;6573;57.696;11.950;2023-09-19T06:40:40;99445.47;;;19.29;100.00
13015;BME280;6573;57.696;11.950;2023-09-19T06:43:10;99437.88;;;19.37;100.00
13015;BME280;6573;57.696;11.950;2023-09-19T06:45:38;99445.94;;;19.52;100.00
13015;BME280;6573;57.696;11.950;2023-09-19T06:48:07;99447.44;;;19.56;100.00
13015;BME280;6573;57.696;11.950;2023-09-19T06:50:37;99446.91;;;19.65;100.00
13015;BME280;6573;57.696;11.950;2023-09-19T06:53:05;99451.09;;;19.55;100.00
13015;BME280;6573;57.696;11.950;2023-09-19T06:55:35;99434.88;;;19.58;100.00
13015;BME280;6573;57.696;11.950;2023-09-19T06:58:03;99445.06;;;19.65;100.00
13015;BME280;6573;57.696;11.950;2023-09-19T07:00:32;99449.66;;;19.63;100.00
13015;BME280;6573;57.696;11.950;2023-09-19T07:03:04;99444.03;;;19.68;100.00
13015;BME280;6573;57.696;11.950;2023-09-19T07:05:35;99453.34;;;19.75;100.00
13015;BME280;6573;57.696;11.950;2023-09-19T07:08:06;99456.22;;;19.86;100.00
13015;BME280;6573;57.696;11.950;2023-09-19T07:10:38;99464.13;;;19.87;100.00
13015;BME280;6573;57.696;11.950;2023-09-19T07:13:08;99462.72;;;19.96;100.00
13015;BME280;6573;57.696;11.950;2023-09-19T07:15:38;99448.22;;;20.00;100.00
13015;BME280;6573;57.696;11.950;2023-09-19T07:18:13;99450.31;;;19.95;100.00
13015;BME280;6573;57.696;11.950;2023-09-19T07:20:44;99459.28;;;19.94;100.00
13015;BME280;6573;57.696;11.950;2023-09-19T07:23:16;99463.56;;;19.96;100.00
13015;BME280;6573;57.696;11.950;2023-09-19T07:25:46;99470.31;;;20.02;100.00
13015;BME280;6573;57.696;11.950;2023-09-19T07:28:16;99461.75;;;19.83;100.00
13015;BME280;6573;57.696;11.950;2023-09-19T07:30:44;99477.66;;;19.70;100.00
13015;BME280;6573;57.696;11.950;2023-09-19T07:33:12;99460.81;;;19.84;100.00
13015;BME280;6573;57.696;11.950;2023-09-19T07:35:44;99458.78;;;19.87;100.00
13015;BME280;6573;57.696;11.950;2023-09-19T07:38:12;99463.38;;;19.85;100.00
13015;BME280;6573;57.696;11.950;2023-09-19T07:40:40;99449.34;;;19.68;100.00
13015;BME280;6573;57.696;11.950;2023-09-19T07:43:10;99471.56;;;19.68;100.00
13015;BME280;6573;57.696;11.950;2023-09-19T07:45:38;99483.00;;;19.70;100.00
13015;BME280;6573;57.696;11.950;2023-09-19T07:48:07;99488.63;;;19.80;100.00
13015;BME280;6573;57.696;11.950;2023-09-19T07:50:41;99503.69;;;19.67;100.00
13015;BME280;6573;57.696;11.950;2023-09-19T07:53:11;99496.63;;;19.66;100.00
13015;BME280;6573;57.696;11.950;2023-09-19T07:55:40;99488.63;;;19.66;100.00
13015;BME280;6573;57.696;11.950;2023-09-19T07:58:10;99496.44;;;19.69;100.00
13015;BME280;6573;57.696;11.950;2023-09-19T08:00:40;99494.41;;;19.58;100.00
13015;BME280;6573;57.696;11.950;2023-09-19T08:03:08;99484.97;;;19.53;100.00
13015;BME280;6573;57.696;11.950;2023-09-19T08:05:44;99502.47;;;19.86;100.00
13015;BME280;6573;57.696;11.950;2023-09-19T08:08:13;99485.94;;;19.80;100.00
13015;BME280;6573;57.696;11.950;2023-09-19T08:10:42;99505.59;;;19.79;100.00
13015;BME280;6573;57.696;11.950;2023-09-19T08:13:15;99496.06;;;19.75;100.00
13015;BME280;6573;57.696;11.950;2023-09-19T08:15:45;99476.06;;;19.82;100.00
13015;BME280;6573;57.696;11.950;2023-09-19T08:18:13;99496.47;;;19.97;100.00
13015;BME280;6573;57.696;11.950;2023-09-19T08:20:42;99489.97;;;19.87;100.00
13015;BME280;6573;57.696;11.950;2023-09-19T08:23:13;99497.00;;;20.02;100.00
13015;BME280;6573;57.696;11.950;2023-09-19T08:25:41;99477.00;;;19.67;100.00
13015;BME280;6573;57.696;11.950;2023-09-19T08:28:09;99497.78;;;19.62;100.00
13015;BME280;6573;57.696;11.950;2023-09-19T08:30:40;99508.84;;;19.98;100.00
13015;BME280;6573;57.696;11.950;2023-09-19T08:33:08;99511.03;;;20.06;100.00
13015;BME280;6573;57.696;11.950;2023-09-19T08:35:37;99513.59;;;20.07;100.00
13015;BME280;6573;57.696;11.950;2023-09-19T08:38:06;99539.38;;;19.94;100.00
13015;BME280;6573;57.696;11.950;2023-09-19T08:40:37;99526.56;;;19.85;100.00
13015;BME280;6573;57.696;11.950;2023-09-19T08:43:07;99534.31;;;20.03;100.00
13015;BME280;6573;57.696;11.950;2023-09-19T08:45:35;99547.53;;;19.77;100.00
13015;BME280;6573;57.696;11.950;2023-09-19T08:48:18;99537.47;;;19.52;100.00
13015;BME280;6573;57.696;11.950;2023-09-19T08:50:51;99542.63;;;19.55;100.00
13015;BME280;6573;57.696;11.950;2023-09-19T08:53:26;99548.28;;;19.65;100.00
13015;BME280;6573;57.696;11.950;2023-09-19T08:56:00;99545.22;;;19.57;100.00
13015;BME280;6573;57.696;11.950;2023-09-19T08:58:34;99527.16;;;19.30;100.00
13015;BME280;6573;57.696;11.950;2023-09-19T09:01:04;99551.28;;;19.45;100.00
13015;BME280;6573;57.696;11.950;2023-09-19T09:03:35;99543.13;;;19.62;100.00
13015;BME280;6573;57.696;11.950;2023-09-19T09:06:06;99544.47;;;19.23;100.00
13015;BME280;6573;57.696;11.950;2023-09-19T09:08:35;99538.69;;;19.47;100.00
13015;BME280;6573;57.696;11.950;2023-09-19T09:11:03;99531.63;;;19.46;100.00
13015;BME280;6573;57.696;11.950;2023-09-19T09:13:35;99543.38;;;19.27;100.00
13015;BME280;6573;57.696;11.950;2023-09-19T09:16:04;99526.25;;;19.16;100.00
13015;BME280;6573;57.696;11.950;2023-09-19T09:18:34;99544.56;;;19.37;100.00
13015;BME280;6573;57.696;11.950;2023-09-19T09:21:02;99545.25;;;19.25;100.00
13015;BME280;6573;57.696;11.950;2023-09-19T09:23:32;99552.00;;;19.17;100.00
13015;BME280;6573;57.696;11.950;2023-09-19T09:26:00;99566.56;;;19.25;100.00
13015;BME280;6573;57.696;11.950;2023-09-19T09:28:33;99543.72;;;19.21;100.00
13015;BME280;6573;57.696;11.950;2023-09-19T09:31:02;99548.41;;;19.48;100.00
13015;BME280;6573;57.696;11.950;2023-09-19T09:33:36;99561.97;;;19.59;100.00
13015;BME280;6573;57.696;11.950;2023-09-19T09:36:05;99544.38;;;19.41;100.00
13015;BME280;6573;57.696;11.950;2023-09-19T09:38:43;99553.97;;;19.59;100.00
13015;BME280;6573;57.696;11.950;2023-09-19T09:41:12;99556.47;;;19.76;100.00
13015;BME280;6573;57.696;11.950;2023-09-19T09:43:54;99546.78;;;19.89;100.00
13015;BME280;6573;57.696;11.950;2023-09-19T09:46:22;99559.09;;;20.06;100.00
13015;BME280;6573;57.696;11.950;2023-09-19T09:49:10;99550.44;;;20.16;100.00
13015;BME280;6573;57.696;11.950;2023-09-19T09:51:49;99571.69;;;20.18;100.00
13015;BME280;6573;57.696;11.950;2023-09-19T09:54:28;99572.56;;;20.04;100.00
13015;BME280;6573;57.696;11.950;2023-09-19T09:57:06;99574.25;;;19.91;100.00
13015;BME280;6573;57.696;11.950;2023-09-19T09:59:46;99566.84;;;19.36;100.00
13015;BME280;6573;57.696;11.950;2023-09-19T10:02:14;99584.84;;;19.02;100.00
13015;BME280;6573;57.696;11.950;2023-09-19T10:04:48;99593.28;;;19.10;100.00
13015;BME280;6573;57.696;11.950;2023-09-19T10:07:27;99599.97;;;19.01;100.00
13015;BME280;6573;57.696;11.950;2023-09-19T10:10:01;99599.44;;;19.10;100.00
13015;BME280;6573;57.696;11.950;2023-09-19T10:12:43;99593.81;;;18.85;100.00
13015;BME280;6573;57.696;11.950;2023-09-19T10:15:14;99600.66;;;18.89;100.00
13015;BME280;6573;57.696;11.950;2023-09-19T10:17:44;99593.44;;;18.91;100.00
13015;BME280;6573;57.696;11.950;2023-09-19T10:20:16;99601.50;;;19.05;100.00
13015;BME280;6573;57.696;11.950;2023-09-19T10:23:01;99607.28;;;19.45;100.00
13015;BME280;6573;57.696;11.950;2023-09-19T10:25:38;99609.44;;;19.22;100.00
13015;BME280;6573;57.696;11.950;2023-09-19T10:28:07;99597.81;;;19.23;100.00
13015;BME280;6573;57.696;11.950;2023-09-19T10:30:41;99607.00;;;19.33;100.00
13015;BME280;6573;57.696;11.950;2023-09-19T10:33:13;99616.31;;;19.26;100.00
13015;BME280;6573;57.696;11.950;2023-09-19T10:35:45;99607.47;;;18.79;100.00
13015;BME280;6573;57.696;11.950;2023-09-19T10:38:16;99597.06;;;18.90;100.00
13015;BME280;6573;57.696;11.950;2023-09-19T10:40:48;99611.84;;;19.11;100.00
13015;BME280;6573;57.696;11.950;2023-09-19T10:43:18;99606.19;;;19.17;100.00
13015;BME280;6573;57.696;11.950;2023-09-19T10:45:50;99627.34;;;19.05;100.00
13015;BME280;6573;57.696;11.950;2023-09-19T10:48:20;99619.00;;;18.95;100.00
13015;BME280;6573;57.696;11.950;2023-09-19T10:51:01;99605.47;;;18.98;100.00
13015;BME280;6573;57.696;11.950;2023-09-19T10:53:43;99594.66;;;19.01;100.00
13015;BME280;6573;57.696;11.950;2023-09-19T10:56:19;99609.16;;;18.96;100.00
13015;BME280;6573;57.696;11.950;2023-09-19T10:58:49;99614.06;;;18.72;100.00
13015;BME280;6573;57.696;11.950;2023-09-19T11:01:18;99624.72;;;18.72;100.00
13015;BME280;6573;57.696;11.950;2023-09-19T11:03:48;99636.44;;;18.85;100.00
13015;BME280;6573;57.696;11.950;2023-09-19T11:06:39;99637.44;;;18.67;100.00
13015;BME280;6573;57.696;11.950;2023-09-19T11:09:08;99621.63;;;18.64;100.00
13015;BME280;6573;57.696;11.950;2023-09-19T11:11:50;99653.47;;;18.83;100.00
13015;BME280;6573;57.696;11.950;2023-09-19T11:14:30;99658.59;;;18.70;100.00
13015;BME280;6573;57.696;11.950;2023-09-19T11:20:27;99648.63;;;19.20;100.00
13015;BME280;6573;57.696;11.950;2023-09-19T11:23:22;99648.22;;;19.12;100.00
13015;BME280;6573;57.696;11.950;2023-09-19T11:25:51;99635.72;;;19.28;100.00
13015;BME280;6573;57.696;11.950;2023-09-19T11:28:34;99627.13;;;19.23;100.00
13015;BME280;6573;57.696;11.950;2023-09-19T11:34:48;99658.44;;;19.67;100.00
13015;BME280;6573;57.696;11.950;2023-09-19T11:40:35;99673.00;;;19.91;100.00
13015;BME280;6573;57.696;11.950;2023-09-19T11:43:29;99633.91;;;19.90;100.00
13015;BME280;6573;57.696;11.950;2023-09-19T11:46:05;99644.41;;;19.93;100.00
13015;BME280;6573;57.696;11.950;2023-09-19T11:48:41;99667.84;;;19.88;100.00
13015;BME280;6573;57.696;11.950;2023-09-19T11:51:15;99675.66;;;19.46;100.00
13015;BME280;6573;57.696;11.950;2023-09-19T11:53:50;99681.25;;;19.57;100.00
13015;BME280;6573;57.696;11.950;2023-09-19T11:56:21;99692.84;;;19.71;100.00
13015;BME280;6573;57.696;11.950;2023-09-19T11:58:54;99697.50;;;19.68;100.00
13015;BME280;6573;57.696;11.950;2023-09-19T12:01:25;99697.22;;;19.72;100.00
13015;BME280;6573;57.696;11.950;2023-09-19T12:03:58;99699.06;;;19.25;100.00
13015;BME280;6573;57.696;11.950;2023-09-19T12:06:28;99708.81;;;19.42;100.00
13015;BME280;6573;57.696;11.950;2023-09-19T12:08:58;99709.31;;;19.64;100.00
13015;BME280;6573;57.696;11.950;2023-09-19T12:11:41;99709.81;;;20.00;100.00
13015;BME280;6573;57.696;11.950;2023-09-19T12:14:11;99702.56;;;20.02;100.00
13015;BME280;6573;57.696;11.950;2023-09-19T12:16:40;99706.22;;;20.01;100.00
13015;BME280;6573;57.696;11.950;2023-09-19T12:19:22;99692.81;;;19.87;100.00
13015;BME280;6573;57.696;11.950;2023-09-19T12:21:55;99699.91;;;20.02;100.00
13015;BME280;6573;57.696;11.950;2023-09-19T12:24:26;99706.03;;;20.04;100.00
13015;BME280;6573;57.696;11.950;2023-09-19T12:27:02;99707.28;;;19.83;100.00
13015;BME280;6573;57.696;11.950;2023-09-19T12:29:43;99706.41;;;19.82;100.00
13015;BME280;6573;57.696;11.950;2023-09-19T12:32:12;99712.63;;;19.83;100.00
13015;BME280;6573;57.696;11.950;2023-09-19T12:34:41;99698.50;;;19.81;100.00
13015;BME280;6573;57.696;11.950;2023-09-19T12:37:11;99695.88;;;19.95;100.00
13015;BME280;6573;57.696;11.950;2023-09-19T12:39:39;99692.81;;;19.87;100.00
13015;BME280;6573;57.696;11.950;2023-09-19T12:42:11;99708.59;;;20.06;100.00
13015;BME280;6573;57.696;11.950;2023-09-19T12:44:42;99709.28;;;20.09;100.00
13015;BME280;6573;57.696;11.950;2023-09-19T12:47:13;99705.78;;;19.93;100.00
13015;BME280;6573;57.696;11.950;2023-09-19T12:50:11;99709.00;;;19.84;100.00
13015;BME280;6573;57.696;11.950;2023-09-19T12:52:45;99690.69;;;20.08;100.00
13015;BME280;6573;57.696;11.950;2023-09-19T12:55:23;99691.00;;;20.17;100.00
13015;BME280;6573;57.696;11.950;2023-09-19T12:58:08;99686.38;;;20.05;100.00
13015;BME280;6573;57.696;11.950;2023-09-19T13:00:40;99693.06;;;20.12;100.00
13015;BME280;6573;57.696;11.950;2023-09-19T13:03:12;99688.47;;;20.00;100.00
13015;BME280;6573;57.696;11.950;2023-09-19T13:05:50;99688.53;;;19.84;100.00
13015;BME280;6573;57.696;11.950;2023-09-19T13:08:23;99691.13;;;20.00;100.00
13015;BME280;6573;57.696;11.950;2023-09-19T13:11:03;99682.38;;;20.12;100.00
13015;BME280;6573;57.696;11.950;2023-09-19T13:13:36;99674.34;;;19.98;100.00
13015;BME280;6573;57.696;11.950;2023-09-19T13:16:05;99682.47;;;19.96;100.00
13015;BME280;6573;57.696;11.950;2023-09-19T13:18:47;99690.19;;;20.01;100.00
13015;BME280;6573;57.696;11.950;2023-09-19T13:21:27;99665.63;;;19.80;100.00
13015;BME280;6573;57.696;11.950;2023-09-19T13:24:19;99677.56;;;19.89;100.00
13015;BME280;6573;57.696;11.950;2023-09-19T13:26:47;99687.97;;;19.93;100.00